sensor_id;sensor_type;location;lat;lon;timestamp;temperature;humidity
25923;DHT22;13725;51.170;4.442;2022-11-15T00:02:06;10.50;99.90
25923;DHT22;13725;51.170;4.442;2022-11-15T00:04:51;10.50;99.90
25923;DHT22;13725;51.170;4.442;2022-11-15T00:07:35;10.60;99.90
25923;DHT22;13725;51.170;4.442;2022-11-15T00:10:19;10.70;99.90
25923;DHT22;13725;51.170;4.442;2022-11-15T00:13:08;10.80;99.90
25923;DHT22;13725;51.170;4.442;2022-11-15T00:15:52;10.90;99.90
25923;DHT22;13725;51.170;4.442;2022-11-15T00:18:40;11.00;99.90
25923;DHT22;13725;51.170;4.442;2022-11-15T00:21:24;11.00;99.90
25923;DHT22;13725;51.170;4.442;2022-11-15T00:24:09;11.10;99.90
25923;DHT22;13725;51.170;4.442;2022-11-15T00:26:53;11.10;99.90
25923;DHT22;13725;51.170;4.442;2022-11-15T00:29:37;11.20;99.90
25923;DHT22;13725;51.170;4.442;2022-11-15T00:32:22;11.20;99.90
25923;DHT22;13725;51.170;4.442;2022-11-15T00:35:07;11.30;99.90
25923;DHT22;13725;51.170;4.442;2022-11-15T00:37:52;11.30;99.90
25923;DHT22;13725;51.170;4.442;2022-11-15T00:40:36;11.40;99.90
25923;DHT22;13725;51.170;4.442;2022-11-15T00:43:21;11.40;99.90
25923;DHT22;13725;51.170;4.442;2022-11-15T00:46:05;11.50;99.90
25923;DHT22;13725;51.170;4.442;2022-11-15T00:48:49;11.60;99.90
25923;DHT22;13725;51.170;4.442;2022-11-15T00:51:33;11.70;99.90
25923;DHT22;13725;51.170;4.442;2022-11-15T00:54:17;11.80;99.90
25923;DHT22;13725;51.170;4.442;2022-11-15T00:57:01;11.80;99.90
25923;DHT22;13725;51.170;4.442;2022-11-15T00:59:45;11.90;99.90
25923;DHT22;13725;51.170;4.442;2022-11-15T01:02:29;12.00;99.90
25923;DHT22;13725;51.170;4.442;2022-11-15T01:05:14;12.10;99.90
25923;DHT22;13725;51.170;4.442;2022-11-15T01:07:58;12.20;99.90
25923;DHT22;13725;51.170;4.442;2022-11-15T01:10:42;12.10;99.90
25923;DHT22;13725;51.170;4.442;2022-11-15T01:13:29;12.20;99.90
25923;DHT22;13725;51.170;4.442;2022-11-15T01:16:16;12.20;99.90
25923;DHT22;13725;51.170;4.442;2022-11-15T01:19:02;12.20;99.90
25923;DHT22;13725;51.170;4.442;2022-11-15T01:21:49;12.20;99.90
25923;DHT22;13725;51.170;4.442;2022-11-15T01:24:34;12.10;99.90
25923;DHT22;13725;51.170;4.442;2022-11-15T01:27:18;12.10;99.90
25923;DHT22;13725;51.170;4.442;2022-11-15T01:30:02;12.10;99.90
25923;DHT22;13725;51.170;4.442;2022-11-15T01:32:47;12.10;99.90
25923;DHT22;13725;51.170;4.442;2022-11-15T01:35:32;12.10;99.90
25923;DHT22;13725;51.170;4.442;2022-11-15T01:38:16;12.20;99.90
25923;DHT22;13725;51.170;4.442;2022-11-15T01:41:00;12.20;99.90
25923;DHT22;13725;51.170;4.442;2022-11-15T01:43:46;12.30;99.90
25923;DHT22;13725;51.170;4.442;2022-11-15T01:46:35;12.30;99.90
25923;DHT22;13725;51.170;4.442;2022-11-15T01:49:22;12.30;99.90
25923;DHT22;13725;51.170;4.442;2022-11-15T01:52:12;12.40;99.90
25923;DHT22;13725;51.170;4.442;2022-11-15T01:55:02;12.40;99.90
25923;DHT22;13725;51.170;4.442;2022-11-15T01:57:51;12.40;99.90
25923;DHT22;13725;51.170;4.442;2022-11-15T02:00:37;12.40;99.90
25923;DHT22;13725;51.170;4.442;2022-11-15T02:03:25;12.40;99.90
25923;DHT22;13725;51.170;4.442;2022-11-15T02:06:11;12.50;99.90
25923;DHT22;13725;51.170;4.442;2022-11-15T02:08:56;12.50;99.90
25923;DHT22;13725;51.170;4.442;2022-11-15T02:11:42;12.50;99.90
25923;DHT22;13725;51.170;4.442;2022-11-15T02:14:27;12.40;99.90
25923;DHT22;13725;51.170;4.442;2022-11-15T02:23:22;12.30;99.90
25923;DHT22;13725;51.170;4.442;2022-11-15T02:27:03;12.40;99.90
25923;DHT22;13725;51.170;4.442;2022-11-15T02:36:22;12.40;99.90
25923;DHT22;13725;51.170;4.442;2022-11-15T02:42:16;12.30;99.90
25923;DHT22;13725;51.170;4.442;2022-11-15T02:45:28;12.30;99.90
25923;DHT22;13725;51.170;4.442;2022-11-15T02:48:15;12.50;99.90
25923;DHT22;13725;51.170;4.442;2022-11-15T02:51:00;12.50;99.90
25923;DHT22;13725;51.170;4.442;2022-11-15T02:53:45;12.50;99.90
25923;DHT22;13725;51.170;4.442;2022-11-15T02:56:29;12.50;99.90
25923;DHT22;13725;51.170;4.442;2022-11-15T03:05:20;12.50;99.90
25923;DHT22;13725;51.170;4.442;2022-11-15T03:08:22;12.40;99.90
25923;DHT22;13725;51.170;4.442;2022-11-15T03:11:11;12.40;99.90
25923;DHT22;13725;51.170;4.442;2022-11-15T03:13:59;12.50;99.90
25923;DHT22;13725;51.170;4.442;2022-11-15T03:16:58;12.40;99.90
25923;DHT22;13725;51.170;4.442;2022-11-15T03:19:51;12.50;99.90
25923;DHT22;13725;51.170;4.442;2022-11-15T03:22:39;12.50;99.90
25923;DHT22;13725;51.170;4.442;2022-11-15T03:25:26;12.40;99.90
25923;DHT22;13725;51.170;4.442;2022-11-15T03:28:19;12.50;99.90
25923;DHT22;13725;51.170;4.442;2022-11-15T03:31:05;12.50;99.90
25923;DHT22;13725;51.170;4.442;2022-11-15T03:37:01;12.50;99.90
25923;DHT22;13725;51.170;4.442;2022-11-15T03:39:46;12.50;99.90
25923;DHT22;13725;51.170;4.442;2022-11-15T03:42:57;12.50;99.90
25923;DHT22;13725;51.170;4.442;2022-11-15T03:45:50;12.60;99.90
25923;DHT22;13725;51.170;4.442;2022-11-15T03:48:39;12.60;99.90
25923;DHT22;13725;51.170;4.442;2022-11-15T03:51:26;12.60;99.90
25923;DHT22;13725;51.170;4.442;2022-11-15T03:54:12;12.60;99.90
25923;DHT22;13725;51.170;4.442;2022-11-15T03:56:57;12.40;99.90
25923;DHT22;13725;51.170;4.442;2022-11-15T03:59:41;12.40;99.90
25923;DHT22;13725;51.170;4.442;2022-11-15T04:02:25;12.30;99.90
25923;DHT22;13725;51.170;4.442;2022-11-15T04:05:09;12.40;99.90
25923;DHT22;13725;51.170;4.442;2022-11-15T04:07:53;12.40;99.90
25923;DHT22;13725;51.170;4.442;2022-11-15T04:10:37;12.40;99.90
25923;DHT22;13725;51.170;4.442;2022-11-15T04:13:21;12.30;99.90
25923;DHT22;13725;51.170;4.442;2022-11-15T04:16:05;12.20;99.90
25923;DHT22;13725;51.170;4.442;2022-11-15T04:18:49;12.20;99.90
25923;DHT22;13725;51.170;4.442;2022-11-15T04:21:53;12.30;99.90
25923;DHT22;13725;51.170;4.442;2022-11-15T04:24:56;12.20;99.90
25923;DHT22;13725;51.170;4.442;2022-11-15T04:27:40;12.20;99.90
25923;DHT22;13725;51.170;4.442;2022-11-15T04:30:24;12.20;99.90
25923;DHT22;13725;51.170;4.442;2022-11-15T04:33:09;12.10;99.90
25923;DHT22;13725;51.170;4.442;2022-11-15T04:35:53;12.10;99.90
25923;DHT22;13725;51.170;4.442;2022-11-15T04:38:56;12.10;99.90
25923;DHT22;13725;51.170;4.442;2022-11-15T04:41:40;12.00;99.90
25923;DHT22;13725;51.170;4.442;2022-11-15T04:44:24;12.10;99.90
25923;DHT22;13725;51.170;4.442;2022-11-15T04:47:08;12.10;99.90
25923;DHT22;13725;51.170;4.442;2022-11-15T04:49:52;12.10;99.90
25923;DHT22;13725;51.170;4.442;2022-11-15T04:52:36;12.00;99.90
25923;DHT22;13725;51.170;4.442;2022-11-15T04:55:21;11.90;99.90
25923;DHT22;13725;51.170;4.442;2022-11-15T04:58:05;12.00;99.90
25923;DHT22;13725;51.170;4.442;2022-11-15T05:00:49;12.00;99.90
25923;DHT22;13725;51.170;4.442;2022-11-15T05:03:33;12.10;99.90
25923;DHT22;13725;51.170;4.442;2022-11-15T05:06:36;12.00;99.90
25923;DHT22;13725;51.170;4.442;2022-11-15T05:09:21;12.00;99.90
25923;DHT22;13725;51.170;4.442;2022-11-15T05:12:05;11.90;99.90
25923;DHT22;13725;51.170;4.442;2022-11-15T05:14:49;11.90;99.90
25923;DHT22;13725;51.170;4.442;2022-11-15T05:17:34;11.90;99.90
25923;DHT22;13725;51.170;4.442;2022-11-15T05:20:18;12.00;99.90
25923;DHT22;13725;51.170;4.442;2022-11-15T05:23:02;12.00;99.90
25923;DHT22;13725;51.170;4.442;2022-11-15T05:25:46;11.90;99.90
25923;DHT22;13725;51.170;4.442;2022-11-15T05:28:32;11.90;99.90
25923;DHT22;13725;51.170;4.442;2022-11-15T05:31:16;11.80;99.90
25923;DHT22;13725;51.170;4.442;2022-11-15T05:34:01;11.70;99.90
25923;DHT22;13725;51.170;4.442;2022-11-15T05:36:48;11.70;99.90
25923;DHT22;13725;51.170;4.442;2022-11-15T05:39:32;11.50;99.90
25923;DHT22;13725;51.170;4.442;2022-11-15T05:42:16;11.30;99.90
25923;DHT22;13725;51.170;4.442;2022-11-15T05:45:03;11.30;99.90
25923;DHT22;13725;51.170;4.442;2022-11-15T05:47:50;11.30;99.90
25923;DHT22;13725;51.170;4.442;2022-11-15T05:50:36;11.30;99.90
25923;DHT22;13725;51.170;4.442;2022-11-15T05:53:23;11.30;99.90
25923;DHT22;13725;51.170;4.442;2022-11-15T05:56:09;11.30;99.90
25923;DHT22;13725;51.170;4.442;2022-11-15T05:58:55;11.20;99.90
25923;DHT22;13725;51.170;4.442;2022-11-15T06:01:41;11.30;99.90
25923;DHT22;13725;51.170;4.442;2022-11-15T06:04:25;11.30;99.90
25923;DHT22;13725;51.170;4.442;2022-11-15T06:07:09;11.30;99.90
25923;DHT22;13725;51.170;4.442;2022-11-15T06:09:53;11.40;99.90
25923;DHT22;13725;51.170;4.442;2022-11-15T06:12:38;11.30;99.90
25923;DHT22;13725;51.170;4.442;2022-11-15T06:15:22;11.30;99.90
25923;DHT22;13725;51.170;4.442;2022-11-15T06:18:06;11.30;99.90
25923;DHT22;13725;51.170;4.442;2022-11-15T06:20:50;11.20;99.90
25923;DHT22;13725;51.170;4.442;2022-11-15T06:23:35;11.20;99.90
25923;DHT22;13725;51.170;4.442;2022-11-15T06:26:19;11.10;99.90
25923;DHT22;13725;51.170;4.442;2022-11-15T06:29:04;11.10;99.90
25923;DHT22;13725;51.170;4.442;2022-11-15T06:31:49;10.90;99.90
25923;DHT22;13725;51.170;4.442;2022-11-15T06:34:33;10.90;99.90
25923;DHT22;13725;51.170;4.442;2022-11-15T06:37:17;11.00;99.90
25923;DHT22;13725;51.170;4.442;2022-11-15T06:40:02;10.90;99.90
25923;DHT22;13725;51.170;4.442;2022-11-15T06:42:46;11.00;99.90
25923;DHT22;13725;51.170;4.442;2022-11-15T06:45:31;11.00;99.90
25923;DHT22;13725;51.170;4.442;2022-11-15T06:48:16;11.10;99.90
25923;DHT22;13725;51.170;4.442;2022-11-15T06:51:01;11.00;99.90
25923;DHT22;13725;51.170;4.442;2022-11-15T06:53:47;10.90;99.90
25923;DHT22;13725;51.170;4.442;2022-11-15T06:56:31;10.80;99.90
25923;DHT22;13725;51.170;4.442;2022-11-15T06:59:15;10.60;99.90
25923;DHT22;13725;51.170;4.442;2022-11-15T07:01:59;10.50;99.90
25923;DHT22;13725;51.170;4.442;2022-11-15T07:04:43;10.50;99.90
25923;DHT22;13725;51.170;4.442;2022-11-15T07:07:27;10.40;99.90
25923;DHT22;13725;51.170;4.442;2022-11-15T07:10:11;10.30;99.90
25923;DHT22;13725;51.170;4.442;2022-11-15T07:12:56;10.30;99.90
25923;DHT22;13725;51.170;4.442;2022-11-15T07:15:40;10.20;99.90
25923;DHT22;13725;51.170;4.442;2022-11-15T07:18:24;10.20;99.90
25923;DHT22;13725;51.170;4.442;2022-11-15T07:21:10;10.10;99.90
25923;DHT22;13725;51.170;4.442;2022-11-15T07:23:54;10.10;99.90
25923;DHT22;13725;51.170;4.442;2022-11-15T07:26:38;10.10;99.90
25923;DHT22;13725;51.170;4.442;2022-11-15T07:29:23;10.10;99.90
25923;DHT22;13725;51.170;4.442;2022-11-15T07:32:07;10.20;99.90
25923;DHT22;13725;51.170;4.442;2022-11-15T07:34:51;10.30;99.90
25923;DHT22;13725;51.170;4.442;2022-11-15T07:37:35;10.30;99.90
25923;DHT22;13725;51.170;4.442;2022-11-15T07:40:19;10.30;99.90
25923;DHT22;13725;51.170;4.442;2022-11-15T07:43:05;10.30;99.90
25923;DHT22;13725;51.170;4.442;2022-11-15T07:45:49;10.40;99.90
25923;DHT22;13725;51.170;4.442;2022-11-15T07:48:33;10.40;99.90
25923;DHT22;13725;51.170;4.442;2022-11-15T07:51:17;10.50;99.90
25923;DHT22;13725;51.170;4.442;2022-11-15T07:54:01;10.50;99.90
25923;DHT22;13725;51.170;4.442;2022-11-15T07:56:46;10.50;99.90
25923;DHT22;13725;51.170;4.442;2022-11-15T07:59:30;10.60;99.90
25923;DHT22;13725;51.170;4.442;2022-11-15T08:02:14;10.70;99.90
25923;DHT22;13725;51.170;4.442;2022-11-15T08:05:02;10.90;99.90
25923;DHT22;13725;51.170;4.442;2022-11-15T08:07:46;11.40;99.90
25923;DHT22;13725;51.170;4.442;2022-11-15T08:10:30;11.60;99.90
25923;DHT22;13725;51.170;4.442;2022-11-15T08:13:14;12.10;99.90
25923;DHT22;13725;51.170;4.442;2022-11-15T08:16:02;12.70;99.90
25923;DHT22;13725;51.170;4.442;2022-11-15T08:18:49;13.40;99.90
25923;DHT22;13725;51.170;4.442;2022-11-15T08:21:33;13.80;99.90
25923;DHT22;13725;51.170;4.442;2022-11-15T08:24:17;14.30;99.90
25923;DHT22;13725;51.170;4.442;2022-11-15T08:27:01;14.70;99.90
25923;DHT22;13725;51.170;4.442;2022-11-15T08:29:45;15.00;99.90
25923;DHT22;13725;51.170;4.442;2022-11-15T08:32:30;15.50;99.90
25923;DHT22;13725;51.170;4.442;2022-11-15T08:35:15;16.10;99.90
25923;DHT22;13725;51.170;4.442;2022-11-15T08:37:59;17.00;99.90
25923;DHT22;13725;51.170;4.442;2022-11-15T08:40:43;17.00;99.90
25923;DHT22;13725;51.170;4.442;2022-11-15T08:43:27;16.40;99.90
25923;DHT22;13725;51.170;4.442;2022-11-15T08:46:13;16.10;99.90
25923;DHT22;13725;51.170;4.442;2022-11-15T08:48:57;15.80;99.90
25923;DHT22;13725;51.170;4.442;2022-11-15T08:51:42;16.30;99.90
25923;DHT22;13725;51.170;4.442;2022-11-15T08:54:26;16.60;99.90
25923;DHT22;13725;51.170;4.442;2022-11-15T08:57:10;16.30;99.90
25923;DHT22;13725;51.170;4.442;2022-11-15T08:59:54;16.00;99.90
25923;DHT22;13725;51.170;4.442;2022-11-15T09:02:40;16.50;99.90
25923;DHT22;13725;51.170;4.442;2022-11-15T09:05:24;16.20;99.90
25923;DHT22;13725;51.170;4.442;2022-11-15T09:08:09;16.40;99.90
25923;DHT22;13725;51.170;4.442;2022-11-15T09:10:53;16.30;99.90
25923;DHT22;13725;51.170;4.442;2022-11-15T09:13:37;15.90;99.90
25923;DHT22;13725;51.170;4.442;2022-11-15T09:16:22;15.00;99.90
25923;DHT22;13725;51.170;4.442;2022-11-15T09:19:06;15.00;99.90
25923;DHT22;13725;51.170;4.442;2022-11-15T09:21:51;15.10;99.90
25923;DHT22;13725;51.170;4.442;2022-11-15T09:24:35;15.80;99.90
25923;DHT22;13725;51.170;4.442;2022-11-15T09:27:19;16.80;99.90
25923;DHT22;13725;51.170;4.442;2022-11-15T09:30:04;18.00;99.90
25923;DHT22;13725;51.170;4.442;2022-11-15T09:32:49;18.70;99.90
25923;DHT22;13725;51.170;4.442;2022-11-15T09:35:33;19.30;99.90
25923;DHT22;13725;51.170;4.442;2022-11-15T09:38:17;19.10;99.90
25923;DHT22;13725;51.170;4.442;2022-11-15T09:44:11;17.30;99.90
25923;DHT22;13725;51.170;4.442;2022-11-15T09:50:12;17.50;99.90
25923;DHT22;13725;51.170;4.442;2022-11-15T09:52:43;16.40;99.90
25923;DHT22;13725;51.170;4.442;2022-11-15T09:55:13;16.70;99.90
25923;DHT22;13725;51.170;4.442;2022-11-15T10:00:22;17.90;99.90
25923;DHT22;13725;51.170;4.442;2022-11-15T10:05:51;17.70;99.90
25923;DHT22;13725;51.170;4.442;2022-11-15T10:11:19;18.70;99.90
25923;DHT22;13725;51.170;4.442;2022-11-15T10:13:46;19.20;99.90
25923;DHT22;13725;51.170;4.442;2022-11-15T10:21:41;21.60;99.90
25923;DHT22;13725;51.170;4.442;2022-11-15T10:24:13;21.50;99.90
25923;DHT22;13725;51.170;4.442;2022-11-15T10:26:47;20.60;99.90
25923;DHT22;13725;51.170;4.442;2022-11-15T10:29:21;20.50;99.90
25923;DHT22;13725;51.170;4.442;2022-11-15T10:31:48;19.90;99.90
25923;DHT22;13725;51.170;4.442;2022-11-15T10:37:06;19.00;99.90
25923;DHT22;13725;51.170;4.442;2022-11-15T10:39:32;18.60;99.90
25923;DHT22;13725;51.170;4.442;2022-11-15T10:42:27;18.00;99.90
25923;DHT22;13725;51.170;4.442;2022-11-15T10:44:53;17.70;99.90
25923;DHT22;13725;51.170;4.442;2022-11-15T10:47:25;17.30;99.90
25923;DHT22;13725;51.170;4.442;2022-11-15T10:50:38;16.90;99.90
25923;DHT22;13725;51.170;4.442;2022-11-15T10:52:46;16.90;99.90
25923;DHT22;13725;51.170;4.442;2022-11-15T10:57:38;17.50;99.90
25923;DHT22;13725;51.170;4.442;2022-11-15T11:02:40;17.80;99.90
25923;DHT22;13725;51.170;4.442;2022-11-15T11:05:34;18.10;99.90
25923;DHT22;13725;51.170;4.442;2022-11-15T11:10:37;16.30;99.90
25923;DHT22;13725;51.170;4.442;2022-11-15T11:13:21;15.70;99.90
25923;DHT22;13725;51.170;4.442;2022-11-15T11:24:18;14.90;99.90
25923;DHT22;13725;51.170;4.442;2022-11-15T11:27:53;15.10;99.90
25923;DHT22;13725;51.170;4.442;2022-11-15T11:41:26;15.70;99.90
25923;DHT22;13725;51.170;4.442;2022-11-15T11:44:20;15.40;99.90
25923;DHT22;13725;51.170;4.442;2022-11-15T11:49:49;14.90;99.90
25923;DHT22;13725;51.170;4.442;2022-11-15T11:52:22;14.70;99.90
25923;DHT22;13725;51.170;4.442;2022-11-15T12:00:20;14.30;99.90
25923;DHT22;13725;51.170;4.442;2022-11-15T12:05:40;14.40;99.90
25923;DHT22;13725;51.170;4.442;2022-11-15T12:11:14;14.30;99.90
25923;DHT22;13725;51.170;4.442;2022-11-15T12:13:43;14.20;99.90
25923;DHT22;13725;51.170;4.442;2022-11-15T12:16:20;14.10;99.90
25923;DHT22;13725;51.170;4.442;2022-11-15T12:18:53;14.10;99.90
25923;DHT22;13725;51.170;4.442;2022-11-15T12:21:43;14.00;99.90
25923;DHT22;13725;51.170;4.442;2022-11-15T12:26:48;13.80;99.90
25923;DHT22;13725;51.170;4.442;2022-11-15T12:29:30;13.70;99.90
25923;DHT22;13725;51.170;4.442;2022-11-15T12:31:57;13.90;99.90
25923;DHT22;13725;51.170;4.442;2022-11-15T12:34:29;13.80;99.90
25923;DHT22;13725;51.170;4.442;2022-11-15T12:37:00;13.80;99.90
25923;DHT22;13725;51.170;4.442;2022-11-15T12:42:41;13.90;99.90
25923;DHT22;13725;51.170;4.442;2022-11-15T12:45:31;13.80;99.90
25923;DHT22;13725;51.170;4.442;2022-11-15T12:56:17;14.00;99.90
25923;DHT22;13725;51.170;4.442;2022-11-15T12:59:00;14.00;99.90
25923;DHT22;13725;51.170;4.442;2022-11-15T13:12:04;14.20;99.90
25923;DHT22;13725;51.170;4.442;2022-11-15T13:14:43;14.10;99.90
25923;DHT22;13725;51.170;4.442;2022-11-15T13:19:52;14.00;99.90
25923;DHT22;13725;51.170;4.442;2022-11-15T13:22:19;14.10;99.90
25923;DHT22;13725;51.170;4.442;2022-11-15T13:25:03;14.20;99.90
25923;DHT22;13725;51.170;4.442;2022-11-15T13:27:29;14.20;99.90
25923;DHT22;13725;51.170;4.442;2022-11-15T13:29:55;14.30;99.90
25923;DHT22;13725;51.170;4.442;2022-11-15T13:32:21;14.40;99.90
25923;DHT22;13725;51.170;4.442;2022-11-15T13:34:48;14.40;99.90
25923;DHT22;13725;51.170;4.442;2022-11-15T13:39:49;14.40;99.90
25923;DHT22;13725;51.170;4.442;2022-11-15T13:42:17;14.40;99.90
25923;DHT22;13725;51.170;4.442;2022-11-15T13:45:04;14.30;99.90
25923;DHT22;13725;51.170;4.442;2022-11-15T13:47:31;14.10;99.90
25923;DHT22;13725;51.170;4.442;2022-11-15T13:49:58;14.10;99.90
25923;DHT22;13725;51.170;4.442;2022-11-15T13:52:28;14.10;99.90
25923;DHT22;13725;51.170;4.442;2022-11-15T13:57:44;14.00;99.90
25923;DHT22;13725;51.170;4.442;2022-11-15T14:00:35;14.00;99.90
25923;DHT22;13725;51.170;4.442;2022-11-15T14:03:16;13.90;99.90
25923;DHT22;13725;51.170;4.442;2022-11-15T14:06:06;13.90;99.90
25923;DHT22;13725;51.170;4.442;2022-11-15T14:08:32;13.80;99.90
25923;DHT22;13725;51.170;4.442;2022-11-15T14:11:17;13.80;99.90
25923;DHT22;13725;51.170;4.442;2022-11-15T14:14:08;13.80;99.90
25923;DHT22;13725;51.170;4.442;2022-11-15T14:16:43;13.80;99.90
25923;DHT22;13725;51.170;4.442;2022-11-15T14:19:34;13.80;99.90
25923;DHT22;13725;51.170;4.442;2022-11-15T14:22:12;13.70;99.90
25923;DHT22;13725;51.170;4.442;2022-11-15T14:24:39;13.60;99.90
25923;DHT22;13725;51.170;4.442;2022-11-15T14:27:23;13.70;99.90
25923;DHT22;13725;51.170;4.442;2022-11-15T14:29:49;13.60;99.90
25923;DHT22;13725;51.170;4.442;2022-11-15T14:32:24;13.70;99.90
25923;DHT22;13725;51.170;4.442;2022-11-15T14:34:58;13.70;99.90
25923;DHT22;13725;51.170;4.442;2022-11-15T14:37:26;13.60;99.90
25923;DHT22;13725;51.170;4.442;2022-11-15T14:39:53;13.60;99.90
25923;DHT22;13725;51.170;4.442;2022-11-15T14:42:20;13.40;99.90
25923;DHT22;13725;51.170;4.442;2022-11-15T14:44:46;13.40;99.90
25923;DHT22;13725;51.170;4.442;2022-11-15T14:47:12;13.50;99.90
25923;DHT22;13725;51.170;4.442;2022-11-15T14:49:38;13.50;99.90
25923;DHT22;13725;51.170;4.442;2022-11-15T14:52:23;13.30;99.90
25923;DHT22;13725;51.170;4.442;2022-11-15T14:54:50;13.20;99.90
25923;DHT22;13725;51.170;4.442;2022-11-15T14:57:16;12.90;99.90
25923;DHT22;13725;51.170;4.442;2022-11-15T14:59:41;12.80;99.90
25923;DHT22;13725;51.170;4.442;2022-11-15T15:02:23;12.70;99.90
25923;DHT22;13725;51.170;4.442;2022-11-15T15:04:50;12.50;99.90
25923;DHT22;13725;51.170;4.442;2022-11-15T15:07:16;12.40;99.90
25923;DHT22;13725;51.170;4.442;2022-11-15T15:09:43;12.30;99.90
25923;DHT22;13725;51.170;4.442;2022-11-15T15:12:17;12.20;99.90
25923;DHT22;13725;51.170;4.442;2022-11-15T15:14:44;12.30;99.90
25923;DHT22;13725;51.170;4.442;2022-11-15T15:17:10;12.20;99.90
25923;DHT22;13725;51.170;4.442;2022-11-15T15:19:36;12.10;99.90
25923;DHT22;13725;51.170;4.442;2022-11-15T15:22:01;12.10;99.90
25923;DHT22;13725;51.170;4.442;2022-11-15T15:24:27;12.10;99.90
25923;DHT22;13725;51.170;4.442;2022-11-15T15:26:53;12.10;99.90
25923;DHT22;13725;51.170;4.442;2022-11-15T15:29:18;12.00;99.90
25923;DHT22;13725;51.170;4.442;2022-11-15T15:31:44;12.10;99.90
25923;DHT22;13725;51.170;4.442;2022-11-15T15:34:09;12.10;99.90
25923;DHT22;13725;51.170;4.442;2022-11-15T15:36:35;12.10;99.90
25923;DHT22;13725;51.170;4.442;2022-11-15T15:39:02;12.10;99.90
25923;DHT22;13725;51.170;4.442;2022-11-15T15:41:28;12.00;99.90
25923;DHT22;13725;51.170;4.442;2022-11-15T15:43:54;12.10;99.90
25923;DHT22;13725;51.170;4.442;2022-11-15T15:46:20;12.20;99.90
25923;DHT22;13725;51.170;4.442;2022-11-15T15:48:46;12.10;99.90
25923;DHT22;13725;51.170;4.442;2022-11-15T15:51:12;12.10;99.90
25923;DHT22;13725;51.170;4.442;2022-11-15T15:53:38;12.10;99.90
25923;DHT22;13725;51.170;4.442;2022-11-15T15:56:04;12.10;99.90
25923;DHT22;13725;51.170;4.442;2022-11-15T15:58:34;12.00;99.90
25923;DHT22;13725;51.170;4.442;2022-11-15T16:01:00;12.00;99.90
25923;DHT22;13725;51.170;4.442;2022-11-15T16:03:26;12.00;99.90
25923;DHT22;13725;51.170;4.442;2022-11-15T16:05:53;11.90;99.90
25923;DHT22;13725;51.170;4.442;2022-11-15T16:08:23;12.00;99.90
25923;DHT22;13725;51.170;4.442;2022-11-15T16:10:49;11.90;99.90
25923;DHT22;13725;51.170;4.442;2022-11-15T16:13:15;11.90;99.90
25923;DHT22;13725;51.170;4.442;2022-11-15T16:15:42;11.90;99.90
25923;DHT22;13725;51.170;4.442;2022-11-15T16:18:17;11.90;99.90
25923;DHT22;13725;51.170;4.442;2022-11-15T16:20:48;11.80;99.90
25923;DHT22;13725;51.170;4.442;2022-11-15T16:23:17;11.90;99.90
25923;DHT22;13725;51.170;4.442;2022-11-15T16:25:49;11.90;99.90
25923;DHT22;13725;51.170;4.442;2022-11-15T16:28:42;12.00;99.90
25923;DHT22;13725;51.170;4.442;2022-11-15T16:31:10;11.90;99.90
25923;DHT22;13725;51.170;4.442;2022-11-15T16:33:36;12.00;99.90
25923;DHT22;13725;51.170;4.442;2022-11-15T16:36:04;11.90;99.90
25923;DHT22;13725;51.170;4.442;2022-11-15T16:38:30;11.90;99.90
25923;DHT22;13725;51.170;4.442;2022-11-15T16:40:55;12.00;99.90
25923;DHT22;13725;51.170;4.442;2022-11-15T16:43:21;11.90;99.90
25923;DHT22;13725;51.170;4.442;2022-11-15T16:45:49;11.90;99.90
25923;DHT22;13725;51.170;4.442;2022-11-15T16:48:27;11.80;99.90
25923;DHT22;13725;51.170;4.442;2022-11-15T16:50:57;11.80;99.90
25923;DHT22;13725;51.170;4.442;2022-11-15T16:53:24;11.80;99.90
25923;DHT22;13725;51.170;4.442;2022-11-15T16:55:50;11.80;99.90
25923;DHT22;13725;51.170;4.442;2022-11-15T16:58:15;11.90;99.90
25923;DHT22;13725;51.170;4.442;2022-11-15T17:00:41;11.90;99.90
25923;DHT22;13725;51.170;4.442;2022-11-15T17:03:07;11.80;99.90
25923;DHT22;13725;51.170;4.442;2022-11-15T17:05:32;11.80;99.90
25923;DHT22;13725;51.170;4.442;2022-11-15T17:07:58;11.90;99.90
25923;DHT22;13725;51.170;4.442;2022-11-15T17:10:25;11.80;99.90
25923;DHT22;13725;51.170;4.442;2022-11-15T17:12:51;11.90;99.90
25923;DHT22;13725;51.170;4.442;2022-11-15T17:15:18;11.80;99.90
25923;DHT22;13725;51.170;4.442;2022-11-15T17:17:44;11.80;99.90
25923;DHT22;13725;51.170;4.442;2022-11-15T17:20:17;12.00;99.90
25923;DHT22;13725;51.170;4.442;2022-11-15T17:22:43;11.90;99.90
25923;DHT22;13725;51.170;4.442;2022-11-15T17:25:09;11.90;99.90
25923;DHT22;13725;51.170;4.442;2022-11-15T17:27:34;11.80;99.90
25923;DHT22;13725;51.170;4.442;2022-11-15T17:30:00;11.90;99.90
25923;DHT22;13725;51.170;4.442;2022-11-15T17:32:26;11.90;99.90
25923;DHT22;13725;51.170;4.442;2022-11-15T17:34:53;11.90;99.90
25923;DHT22;13725;51.170;4.442;2022-11-15T17:37:18;11.80;99.90
25923;DHT22;13725;51.170;4.442;2022-11-15T17:39:44;11.80;99.90
25923;DHT22;13725;51.170;4.442;2022-11-15T17:42:10;12.00;99.90
25923;DHT22;13725;51.170;4.442;2022-11-15T17:44:35;11.90;99.90
25923;DHT22;13725;51.170;4.442;2022-11-15T17:47:01;11.80;99.90
25923;DHT22;13725;51.170;4.442;2022-11-15T17:49:27;11.80;99.90
25923;DHT22;13725;51.170;4.442;2022-11-15T17:51:53;11.80;99.90
25923;DHT22;13725;51.170;4.442;2022-11-15T17:54:18;11.90;99.90
25923;DHT22;13725;51.170;4.442;2022-11-15T17:56:44;11.80;99.90
25923;DHT22;13725;51.170;4.442;2022-11-15T17:59:10;11.80;99.90
25923;DHT22;13725;51.170;4.442;2022-11-15T18:01:36;11.80;99.90
25923;DHT22;13725;51.170;4.442;2022-11-15T18:04:05;12.00;99.90
25923;DHT22;13725;51.170;4.442;2022-11-15T18:06:33;11.90;99.90
25923;DHT22;13725;51.170;4.442;2022-11-15T18:09:00;11.80;99.90
25923;DHT22;13725;51.170;4.442;2022-11-15T18:11:35;11.80;99.90
25923;DHT22;13725;51.170;4.442;2022-11-15T18:14:05;11.90;99.90
25923;DHT22;13725;51.170;4.442;2022-11-15T18:16:33;11.90;99.90
25923;DHT22;13725;51.170;4.442;2022-11-15T18:18:59;12.10;99.90
25923;DHT22;13725;51.170;4.442;2022-11-15T18:21:29;11.90;99.90
25923;DHT22;13725;51.170;4.442;2022-11-15T18:23:58;11.90;99.90
25923;DHT22;13725;51.170;4.442;2022-11-15T18:26:25;11.90;99.90
25923;DHT22;13725;51.170;4.442;2022-11-15T18:28:53;11.90;99.90
25923;DHT22;13725;51.170;4.442;2022-11-15T18:31:21;11.90;99.90
25923;DHT22;13725;51.170;4.442;2022-11-15T18:33:48;11.90;99.90
25923;DHT22;13725;51.170;4.442;2022-11-15T18:36:16;11.90;99.90
25923;DHT22;13725;51.170;4.442;2022-11-15T18:38:42;12.00;99.90
25923;DHT22;13725;51.170;4.442;2022-11-15T18:41:13;12.00;99.90
25923;DHT22;13725;51.170;4.442;2022-11-15T18:43:42;12.00;99.90
25923;DHT22;13725;51.170;4.442;2022-11-15T18:46:10;11.90;99.90